Time;durP1;ratioP1;P1;durP2;ratioP2;P2;SDS_P1;SDS_P2;PMS_P1;PMS_P2;Temp;Humidity;BMP_temperature;BMP_pressure;BME280_temperature;BME280_humidity;BME280_pressure;Samples;Min_cycle;Max_cycle;Signal;HPM_P1;HPM_P2
2022/05/09 00:01:14;;;;;;;6.00;3.50;;;;;;;12.37;51.26;101413.97;103675;1302;25470;-78
2022/05/09 00:03:42;;;;;;;7.30;3.70;;;;;;;12.32;51.50;101416.44;103350;1302;23959;-73
2022/05/09 00:06:10;;;;;;;7.20;4.00;;;;;;;12.25;51.70;101419.60;103528;1301;25475;-77
2022/05/09 00:08:43;;;;;;;8.20;3.50;;;;;;;12.18;51.92;101428.27;103878;1296;22571;-79
2022/05/09 00:11:12;;;;;;;5.70;3.70;;;;;;;12.16;52.27;101427.37;103859;1290;24261;-80
2022/05/09 00:13:42;;;;;;;4.60;3.50;;;;;;;12.15;52.42;101433.20;104478;1290;22576;-78
2022/05/09 00:16:09;;;;;;;7.40;4.00;;;;;;;12.13;52.54;101439.20;104752;1291;24292;-76
2022/05/09 00:18:36;;;;;;;7.00;3.70;;;;;;;12.11;52.67;101440.09;104640;1296;22599;-75
2022/05/09 00:21:03;;;;;;;7.00;3.80;;;;;;;12.08;52.88;101443.44;104459;1296;22665;-76
2022/05/09 00:23:31;;;;;;;5.70;3.80;;;;;;;12.02;52.97;101447.81;103927;1296;22693;-76
2022/05/09 00:25:58;;;;;;;7.90;3.50;;;;;;;11.98;53.11;101450.63;103807;1296;22636;-76
2022/05/09 00:28:26;;;;;;;6.40;3.40;;;;;;;11.87;53.22;101448.14;104074;1296;22577;-78
2022/05/09 00:30:54;;;;;;;6.10;3.40;;;;;;;11.84;53.58;101454.66;103584;1302;22583;-82
2022/05/09 00:33:24;;;;;;;4.40;3.20;;;;;;;11.82;53.74;101457.99;103586;1302;24051;-78
2022/05/09 00:35:52;;;;;;;5.30;3.40;;;;;;;11.85;53.91;101459.77;103410;1302;22609;-79
2022/05/09 00:38:20;;;;;;;6.60;3.80;;;;;;;11.83;54.05;101461.01;103846;1298;22560;-79
2022/05/09 00:43:46;;;;;;;6.90;4.20;;;;;;;11.81;54.20;101465.05;103767;1299;22588;-76
2022/05/09 00:46:13;;;;;;;4.80;3.80;;;;;;;11.79;54.08;101472.46;103578;1299;24330;-77
2022/05/09 00:48:40;;;;;;;4.60;3.40;;;;;;;11.77;54.18;101470.52;103718;1290;25729;-78
2022/05/09 00:51:09;;;;;;;5.10;3.40;;;;;;;11.74;54.33;101473.32;104189;1290;22517;-77
2022/05/09 00:53:37;;;;;;;5.00;3.50;;;;;;;11.72;54.55;101476.85;104609;1290;23301;-76
2022/05/09 00:56:11;;;;;;;6.20;3.70;;;;;;;11.66;54.67;101481.59;104315;1290;22551;-76
2022/05/09 00:58:47;;;;;;;5.60;3.70;;;;;;;11.59;54.80;101484.05;104566;1291;22581;-74
2022/05/09 01:01:15;;;;;;;6.20;3.80;;;;;;;11.58;54.93;101484.92;104516;1291;25393;-75
2022/05/09 01:04:02;;;;;;;4.80;3.60;;;;;;;11.52;55.21;101483.11;104510;1290;25261;-75
2022/05/09 01:06:29;;;;;;;7.20;3.90;;;;;;;11.51;55.28;101489.48;104641;1290;24291;-76
2022/05/09 01:08:55;;;;;;;5.60;4.00;;;;;;;11.50;55.39;101493.17;104163;1291;22718;-76
2022/05/09 01:11:25;;;;;;;5.40;3.80;;;;;;;11.50;55.56;101492.83;104471;1290;23946;-76
2022/05/09 01:17:09;;;;;;;5.60;3.50;;;;;;;11.45;55.65;101502.67;104460;1290;24375;-76
2022/05/09 01:19:40;;;;;;;5.60;3.40;;;;;;;11.43;55.68;101501.25;104429;1290;23140;-77
2022/05/09 01:22:25;;;;;;;4.30;3.20;;;;;;;11.44;55.64;101501.42;104364;1290;25326;-78
2022/05/09 01:24:54;;;;;;;6.80;3.80;;;;;;;11.42;55.64;101501.23;104367;1291;24466;-78
2022/05/09 01:27:22;;;;;;;5.20;3.90;;;;;;;11.37;55.55;101503.17;104517;1290;22592;-77
2022/05/09 01:29:52;;;;;;;5.50;3.90;;;;;;;11.32;55.60;101503.84;104264;1290;22781;-80
2022/05/09 01:32:44;;;;;;;6.80;3.80;;;;;;;11.28;55.75;101501.52;104383;1290;22568;-77
2022/05/09 01:35:15;;;;;;;6.70;3.90;;;;;;;11.29;55.84;101504.00;104292;1290;25397;-76
2022/05/09 01:37:47;;;;;;;6.60;3.70;;;;;;;11.25;55.71;101501.86;105008;1290;22605;-76
2022/05/09 01:40:15;;;;;;;4.50;3.40;;;;;;;11.21;55.71;101504.13;105176;1290;22569;-74
2022/05/09 01:42:43;;;;;;;5.20;3.50;;;;;;;11.18;55.98;101502.35;105712;1290;23522;-74
2022/05/09 01:45:13;;;;;;;5.60;3.70;;;;;;;11.15;55.98;101501.63;106707;1290;22639;-75
2022/05/09 01:50:32;;;;;;;5.00;3.60;;;;;;;11.03;55.88;101509.64;105666;1290;22555;-74
2022/05/09 01:52:59;;;;;;;6.40;3.90;;;;;;;11.00;55.77;101514.73;104796;1296;25380;-76
2022/05/09 01:55:27;;;;;;;6.60;3.50;;;;;;;10.97;55.93;101513.67;104952;1296;22511;-79
2022/05/09 01:57:55;;;;;;;5.50;3.50;;;;;;;10.95;55.87;101515.93;105926;1296;22999;-75
2022/05/09 02:00:22;;;;;;;5.10;3.50;;;;;;;10.97;55.85;101516.48;106021;1296;26597;-76
2022/05/09 02:02:49;;;;;;;3.90;3.10;;;;;;;10.98;55.75;101522.13;106379;1296;22600;-76
2022/05/09 02:05:16;;;;;;;4.00;3.20;;;;;;;10.94;55.62;101520.34;105917;1296;25393;-75
2022/05/09 02:07:43;;;;;;;4.20;3.20;;;;;;;10.92;55.66;101522.27;105479;1302;22613;-77
2022/05/09 02:10:10;;;;;;;6.20;3.80;;;;;;;10.90;55.59;101525.24;105539;1302;22715;-76
2022/05/09 02:12:37;;;;;;;6.20;3.80;;;;;;;10.89;55.61;101521.38;105161;1296;25462;-78
2022/05/09 02:15:05;;;;;;;5.60;3.40;;;;;;;10.84;55.47;101521.14;104305;1296;25266;-77
2022/05/09 02:17:32;;;;;;;4.90;3.10;;;;;;;10.81;55.55;101526.76;104079;1296;25252;-77
2022/05/09 02:19:59;;;;;;;4.20;3.00;;;;;;;10.77;55.57;101527.44;103913;1296;22582;-80
2022/05/09 02:22:29;;;;;;;4.60;3.00;;;;;;;10.74;55.58;101527.23;103723;1296;24285;-77
2022/05/09 02:24:55;;;;;;;6.40;3.30;;;;;;;10.70;55.71;101529.84;103844;1296;24312;-78
2022/05/09 02:27:24;;;;;;;5.20;3.20;;;;;;;10.68;55.66;101538.64;103806;1296;22586;-76
2022/05/09 02:29:51;;;;;;;4.00;3.60;;;;;;;10.63;55.65;101536.82;103571;1300;25624;-78
2022/05/09 02:32:18;;;;;;;3.60;3.20;;;;;;;10.61;55.71;101542.27;103738;1296;24258;-75
2022/05/09 02:34:45;;;;;;;3.80;2.60;;;;;;;10.57;55.50;101546.64;103980;1296;23408;-76
2022/05/09 02:37:13;;;;;;;4.70;3.20;;;;;;;10.50;55.62;101549.92;103953;1295;24230;-74
2022/05/09 02:39:39;;;;;;;7.10;3.40;;;;;;;10.47;55.75;101550.39;104010;1296;22708;-78
2022/05/09 02:42:06;;;;;;;6.90;3.20;;;;;;;10.45;55.72;101551.59;103882;1297;22508;-74
2022/05/09 02:44:36;;;;;;;4.10;3.40;;;;;;;10.42;55.73;101551.02;103759;1296;22829;-74
2022/05/09 02:47:04;;;;;;;5.60;2.60;;;;;;;10.42;55.73;101553.32;103778;1296;23974;-74
2022/05/09 02:49:31;;;;;;;4.40;3.10;;;;;;;10.42;55.57;101552.27;104508;1290;22562;-75
2022/05/09 02:51:59;;;;;;;5.40;3.00;;;;;;;10.38;55.60;101559.63;104720;1290;23977;-74
2022/05/09 02:54:26;;;;;;;4.20;2.90;;;;;;;10.34;55.61;101559.92;104451;1291;23678;-73
2022/05/09 02:56:52;;;;;;;5.70;2.90;;;;;;;10.29;55.52;101568.69;104337;1290;22575;-79
2022/05/09 02:59:20;;;;;;;4.00;3.10;;;;;;;10.23;55.53;101570.90;104433;1293;25592;-76
2022/05/09 03:01:48;;;;;;;4.40;2.70;;;;;;;10.17;55.70;101574.01;104400;1290;22565;-78
2022/05/09 03:07:17;;;;;;;4.30;2.80;;;;;;;10.11;55.73;101577.98;104357;1290;24250;-80
2022/05/09 03:09:47;;;;;;;4.60;2.80;;;;;;;10.09;55.65;101582.02;104247;1290;22552;-80
2022/05/09 03:12:18;;;;;;;3.90;2.70;;;;;;;10.07;55.82;101583.41;103748;1299;22609;-80
2022/05/09 03:14:47;;;;;;;4.50;2.80;;;;;;;10.08;55.83;101582.53;103808;1299;24419;-79
2022/05/09 03:17:15;;;;;;;3.70;2.80;;;;;;;10.08;55.67;101587.98;103825;1299;22553;-80
2022/05/09 03:19:43;;;;;;;3.90;2.60;;;;;;;10.09;55.84;101588.00;103589;1299;22565;-78
2022/05/09 03:22:10;;;;;;;7.50;3.20;;;;;;;10.05;55.62;101585.84;103672;1300;22578;-79
2022/05/09 03:24:37;;;;;;;5.00;2.70;;;;;;;9.97;55.43;101585.20;103455;1302;25126;-76
2022/05/09 03:27:06;;;;;;;3.30;2.50;;;;;;;9.95;55.63;101590.27;103735;1299;25276;-78
2022/05/09 03:29:34;;;;;;;3.80;2.90;;;;;;;9.94;55.54;101594.67;103599;1299;24304;-78
2022/05/09 03:32:01;;;;;;;3.40;2.90;;;;;;;9.95;55.52;101596.80;103855;1294;26788;-75
2022/05/09 03:34:29;;;;;;;3.80;2.70;;;;;;;9.95;55.42;101601.19;104289;1293;24005;-78
2022/05/09 03:36:56;;;;;;;3.60;3.00;;;;;;;9.90;55.18;101602.90;104288;1290;22547;-79
2022/05/09 03:39:23;;;;;;;3.50;2.50;;;;;;;9.85;55.26;101603.02;104400;1290;24322;-79
2022/05/09 03:41:51;;;;;;;4.50;3.10;;;;;;;9.89;55.28;101609.92;104442;1293;25237;-76
2022/05/09 03:44:18;;;;;;;4.40;2.50;;;;;;;9.93;55.26;101611.20;104492;1290;23987;-75
2022/05/09 03:46:45;;;;;;;4.20;2.80;;;;;;;9.92;55.06;101618.40;103985;1293;24305;-77
2022/05/09 03:49:12;;;;;;;4.20;2.50;;;;;;;9.93;55.09;101618.95;104264;1291;25439;-80
2022/05/09 03:51:39;;;;;;;3.70;2.50;;;;;;;9.93;54.96;101625.80;104125;1293;23340;-78
2022/05/09 03:54:06;;;;;;;4.20;2.60;;;;;;;9.91;55.08;101626.13;103943;1293;22568;-82
2022/05/09 03:56:32;;;;;;;5.50;2.70;;;;;;;9.91;54.90;101629.13;104562;1290;22650;-83
2022/05/09 03:58:59;;;;;;;3.20;2.70;;;;;;;9.92;54.76;101637.05;104523;1290;22554;-81
2022/05/09 04:01:26;;;;;;;6.60;4.10;;;;;;;9.86;54.55;101642.09;104304;1290;22611;-83
2022/05/09 04:03:53;;;;;;;4.20;2.50;;;;;;;9.84;54.68;101643.46;104490;1290;23039;-80
2022/05/09 04:06:21;;;;;;;4.20;2.40;;;;;;;9.85;54.75;101641.89;104416;1288;22979;-82
2022/05/09 04:08:49;;;;;;;4.30;2.60;;;;;;;9.82;54.58;101644.48;104836;1287;25358;-80
2022/05/09 04:11:19;;;;;;;6.80;2.60;;;;;;;9.81;54.58;101642.71;104478;1290;22642;-79
2022/05/09 04:13:47;;;;;;;4.70;2.40;;;;;;;9.77;54.33;101641.43;104650;1288;22801;-79
2022/05/09 04:19:02;;;;;;;6.40;2.70;;;;;;;9.80;54.20;101645.50;104554;1290;22556;-80
2022/05/09 04:21:30;;;;;;;4.30;2.90;;;;;;;9.79;54.06;101647.79;104053;1294;25453;-80
2022/05/09 04:23:58;;;;;;;6.40;2.90;;;;;;;9.77;53.91;101650.92;104482;1294;24858;-82
2022/05/09 04:26:31;;;;;;;8.30;3.00;;;;;;;9.80;53.87;101651.68;104192;1294;25938;-81
2022/05/09 04:28:59;;;;;;;2.20;2.00;;;;;;;9.83;53.78;101650.13;103962;1293;22646;-83
2022/05/09 04:31:28;;;;;;;6.10;2.70;;;;;;;9.85;53.74;101653.51;104203;1294;25250;-84
2022/05/09 04:33:57;;;;;;;7.10;3.30;;;;;;;9.90;53.64;101651.29;104289;1293;23928;-83
2022/05/09 04:36:26;;;;;;;3.30;2.70;;;;;;;9.91;53.62;101654.46;104236;1293;23942;-81
2022/05/09 04:38:54;;;;;;;6.80;2.40;;;;;;;9.94;53.35;101653.97;104311;1291;25346;-82
2022/05/09 04:41:22;;;;;;;3.50;2.20;;;;;;;9.97;53.27;101657.53;104427;1288;22568;-82
2022/05/09 04:43:49;;;;;;;4.10;2.50;;;;;;;9.97;53.02;101658.58;104783;1290;25260;-83
2022/05/09 04:46:17;;;;;;;5.30;2.20;;;;;;;9.95;52.91;101658.20;104872;1290;25268;-82
2022/05/09 04:48:46;;;;;;;6.00;2.60;;;;;;;9.93;52.80;101660.30;104879;1288;25379;-82
2022/05/09 04:51:15;;;;;;;5.80;2.40;;;;;;;9.96;52.87;101662.98;104253;1296;22508;-86
2022/05/09 04:53:42;;;;;;;3.20;2.40;;;;;;;10.02;52.88;101666.22;104217;1296;25484;-87
2022/05/09 04:56:10;;;;;;;7.70;2.50;;;;;;;10.07;52.79;101665.95;104396;1293;25349;-87
2022/05/09 04:58:37;;;;;;;3.00;2.30;;;;;;;10.08;52.59;101669.48;104213;1293;22540;-86
2022/05/09 05:01:04;;;;;;;4.40;2.70;;;;;;;10.12;52.24;101670.59;104051;1296;307245;-87
2022/05/09 05:03:31;;;;;;;9.10;2.70;;;;;;;10.19;52.32;101673.33;104310;1296;25765;-89
2022/05/09 05:05:58;;;;;;;8.90;3.10;;;;;;;10.28;52.12;101676.77;104549;1295;22592;-89
2022/05/09 05:08:30;;;;;;;3.60;2.10;;;;;;;10.31;51.65;101675.76;104657;1296;22583;-82
2022/05/09 05:10:57;;;;;;;6.90;2.50;;;;;;;10.35;51.48;101676.68;104846;1290;26898;-86
2022/05/09 05:13:31;;;;;;;3.90;2.00;;;;;;;10.39;51.31;101678.67;105426;1288;22562;-86
2022/05/09 05:15:58;;;;;;;6.40;2.50;;;;;;;10.40;51.33;101678.69;104947;1291;22580;-82
2022/05/09 05:18:27;;;;;;;5.10;2.20;;;;;;;10.44;51.13;101680.70;104518;1296;24098;-87
2022/05/09 05:20:55;;;;;;;7.20;2.10;;;;;;;10.52;51.12;101685.20;104310;1296;23570;-86
2022/05/09 05:23:23;;;;;;;6.40;2.40;;;;;;;10.58;50.97;101683.68;104387;1297;22566;-85
2022/05/09 05:25:51;;;;;;;9.30;2.70;;;;;;;10.64;50.69;101686.40;104313;1296;25551;-86
2022/05/09 05:28:19;;;;;;;12.30;2.40;;;;;;;10.69;50.40;101692.79;104084;1296;22557;-86
2022/05/09 05:30:49;;;;;;;7.80;2.40;;;;;;;10.74;50.16;101693.20;103913;1296;22591;-82
2022/05/09 05:33:16;;;;;;;5.40;1.70;;;;;;;10.79;49.85;101692.55;103964;1296;25374;-86
2022/05/09 05:35:44;;;;;;;5.70;1.90;;;;;;;10.83;49.82;101695.23;104100;1296;23245;-90
2022/05/09 05:38:12;;;;;;;4.90;1.70;;;;;;;10.86;49.65;101694.58;103797;1302;22623;-86
2022/05/09 05:40:41;;;;;;;5.90;2.00;;;;;;;10.89;49.48;101697.08;103508;1302;22597;-83
2022/05/09 05:43:14;;;;;;;3.50;1.60;;;;;;;10.97;49.38;101703.13;103832;1296;22566;-84
2022/05/09 05:45:46;;;;;;;5.70;2.10;;;;;;;11.03;49.29;101706.20;104175;1297;25552;-83
2022/05/09 05:48:14;;;;;;;6.30;2.40;;;;;;;11.08;48.86;101707.47;104080;1296;22733;-82
2022/05/09 05:50:41;;;;;;;6.30;1.90;;;;;;;11.09;48.88;101704.67;104006;1297;25452;-82
2022/05/09 05:53:09;;;;;;;3.20;1.90;;;;;;;11.17;48.66;101704.04;104390;1296;22732;-84
2022/05/09 05:55:36;;;;;;;5.40;2.00;;;;;;;11.23;48.52;101707.45;103513;1300;25593;-83
2022/05/09 05:58:03;;;;;;;2.80;1.60;;;;;;;11.24;47.99;101706.58;103792;1294;22643;-84
2022/05/09 06:00:31;;;;;;;8.30;2.30;;;;;;;11.25;47.89;101706.21;103925;1296;25272;-85
2022/05/09 06:02:59;;;;;;;4.00;1.80;;;;;;;11.28;47.89;101711.90;104258;1296;23338;-84
2022/05/09 06:05:29;;;;;;;7.10;1.60;;;;;;;11.30;47.60;101714.92;104631;1296;24313;-84
2022/05/09 06:07:56;;;;;;;4.90;2.40;;;;;;;11.36;47.77;101713.56;104809;1297;22587;-84
2022/05/09 06:10:30;;;;;;;4.20;1.90;;;;;;;11.45;47.47;101709.58;104508;1296;22645;-85
2022/05/09 06:13:00;;;;;;;4.90;1.90;;;;;;;11.54;47.33;101714.06;104964;1291;22528;-87
2022/05/09 06:15:34;;;;;;;6.30;2.10;;;;;;;11.62;47.19;101718.54;105143;1296;24224;-82
2022/05/09 06:18:04;;;;;;;5.50;1.60;;;;;;;11.71;47.13;101720.55;105150;1296;23337;-83
2022/05/09 06:20:35;;;;;;;6.40;1.60;;;;;;;11.76;47.01;101719.17;106160;1296;22748;-83
2022/05/09 06:23:03;;;;;;;4.00;2.00;;;;;;;11.83;46.63;101719.22;106073;1299;22583;-84
2022/05/09 06:25:34;;;;;;;4.00;1.70;;;;;;;11.87;46.47;101720.66;103830;1299;24179;-85
2022/05/09 06:28:03;;;;;;;5.60;1.80;;;;;;;11.90;46.56;101725.63;103290;1305;23380;-85
2022/05/09 06:30:31;;;;;;;5.20;2.20;;;;;;;11.95;46.38;101727.95;105915;1305;23098;-84
2022/05/09 06:32:58;;;;;;;3.70;1.60;;;;;;;12.00;46.30;101730.63;106252;1300;22526;-82
2022/05/09 06:35:47;;;;;;;3.70;1.80;;;;;;;12.06;46.37;101734.91;104464;1299;25458;-83
2022/05/09 06:38:19;;;;;;;4.30;1.70;;;;;;;12.14;46.16;101735.16;103949;1299;22724;-83
2022/05/09 06:40:46;;;;;;;3.30;2.00;;;;;;;12.22;46.33;101742.46;103811;1296;24894;-83
2022/05/09 06:43:14;;;;;;;3.40;1.60;;;;;;;12.29;46.10;101743.36;103982;1297;23055;-84
2022/05/09 06:45:42;;;;;;;4.30;1.50;;;;;;;12.34;45.58;101739.86;104084;1291;22784;-84
2022/05/09 06:48:10;;;;;;;2.60;1.50;;;;;;;12.37;45.55;101741.48;103875;1293;25285;-83
2022/05/09 06:50:39;;;;;;;2.80;1.30;;;;;;;12.44;45.48;101742.04;104091;1297;25393;-83
2022/05/09 06:53:07;;;;;;;7.10;1.60;;;;;;;12.47;45.37;101741.88;104659;1294;25315;-83
2022/05/09 06:55:45;;;;;;;3.50;1.50;;;;;;;12.53;45.25;101743.30;104170;1296;22790;-83
2022/05/09 06:58:17;;;;;;;3.60;2.00;;;;;;;12.61;45.26;101743.17;103941;1296;22575;-83
2022/05/09 07:00:45;;;;;;;4.00;1.40;;;;;;;12.66;44.82;101744.60;103959;1294;25407;-84
2022/05/09 07:03:14;;;;;;;8.70;2.50;;;;;;;12.71;44.90;101744.43;104100;1294;25376;-85
2022/05/09 07:05:44;;;;;;;6.10;1.60;;;;;;;12.81;44.64;101747.66;103908;1293;22725;-84
2022/05/09 07:08:12;;;;;;;2.90;1.80;;;;;;;12.89;44.25;101750.35;104520;1291;24141;-85
2022/05/09 07:10:40;;;;;;;4.40;1.60;;;;;;;12.96;44.16;101752.83;104584;1290;22627;-82
2022/05/09 07:13:07;;;;;;;4.80;1.70;;;;;;;13.01;44.33;101752.14;104392;1296;22596;-84
2022/05/09 07:15:35;;;;;;;4.20;1.80;;;;;;;13.08;44.21;101752.52;104685;1296;27042;-83
2022/05/09 07:18:03;;;;;;;2.60;1.20;;;;;;;13.17;44.11;101753.23;104535;1296;26511;-83
2022/05/09 07:20:33;;;;;;;4.90;1.80;;;;;;;13.24;43.94;101752.71;104508;1296;22561;-86
2022/05/09 07:23:11;;;;;;;3.60;1.60;;;;;;;13.32;43.98;101754.85;104333;1299;24230;-85
2022/05/09 07:25:39;;;;;;;5.60;1.40;;;;;;;13.42;44.03;101755.75;104713;1296;26033;-84
2022/05/09 07:28:07;;;;;;;4.00;1.50;;;;;;;13.50;43.43;101757.19;105495;1296;22603;-84
2022/05/09 07:30:35;;;;;;;2.40;1.60;;;;;;;13.56;43.07;101756.84;105776;1291;22489;-86
2022/05/09 07:33:03;;;;;;;7.00;1.80;;;;;;;13.66;42.79;101754.55;105550;1290;25385;-84
2022/05/09 07:35:34;;;;;;;4.70;1.40;;;;;;;13.76;42.82;101752.42;105434;1291;23976;-84
2022/05/09 07:38:01;;;;;;;4.50;1.50;;;;;;;13.87;42.58;101754.02;105192;1290;23101;-84
2022/05/09 07:40:37;;;;;;;3.50;1.50;;;;;;;13.98;42.24;101751.52;105715;1293;22974;-85
2022/05/09 07:43:10;;;;;;;4.40;1.60;;;;;;;14.06;41.93;101750.61;107249;1294;22681;-87
2022/05/09 07:45:37;;;;;;;3.90;1.40;;;;;;;14.14;41.74;101750.60;106882;1294;22602;-85
2022/05/09 07:48:04;;;;;;;2.30;1.80;;;;;;;14.24;41.66;101754.30;105441;1293;24513;-86
2022/05/09 07:50:32;;;;;;;2.20;1.50;;;;;;;14.34;41.17;101751.96;105498;1294;22682;-85
2022/05/09 07:53:05;;;;;;;4.20;1.60;;;;;;;14.46;41.12;101752.28;106539;1294;22848;-84
2022/05/09 07:55:33;;;;;;;2.80;1.50;;;;;;;14.55;40.90;101753.14;104775;1294;22689;-85
2022/05/09 07:58:01;;;;;;;2.90;1.30;;;;;;;14.65;40.70;101751.50;105288;1291;22720;-85
2022/05/09 08:00:28;;;;;;;2.40;1.30;;;;;;;14.75;40.33;101748.44;105745;1290;22568;-86
2022/05/09 08:02:55;;;;;;;5.10;1.40;;;;;;;14.86;40.17;101747.35;106349;1290;23291;-85
2022/05/09 08:05:23;;;;;;;4.80;1.50;;;;;;;14.98;40.38;101746.94;105789;1297;22606;-84
2022/05/09 08:07:51;;;;;;;4.40;1.40;;;;;;;15.13;40.42;101745.95;105811;1296;22598;-85
2022/05/09 08:10:18;;;;;;;3.70;1.40;;;;;;;15.27;40.03;101740.00;106227;1296;22590;-85
2022/05/09 08:12:47;;;;;;;4.30;1.30;;;;;;;15.41;39.73;101740.80;107328;1296;22704;-85
2022/05/09 08:15:18;;;;;;;1.80;1.40;;;;;;;15.56;39.44;101742.27;107471;1293;23022;-88
2022/05/09 08:17:47;;;;;;;2.80;1.40;;;;;;;15.70;39.28;101736.29;107089;1299;23045;-85
2022/05/09 08:20:25;;;;;;;4.00;1.40;;;;;;;15.85;38.72;101734.73;106853;1302;22240;-88
2022/05/09 08:23:07;;;;;;;3.60;1.30;;;;;;;15.99;38.43;101729.11;106942;1296;22657;-86
2022/05/09 08:25:37;;;;;;;5.00;1.40;;;;;;;16.18;37.97;101729.98;107322;1297;22597;-86
2022/05/09 08:28:07;;;;;;;2.00;1.10;;;;;;;16.32;37.21;101733.56;106900;1302;22265;-84
2022/05/09 08:30:37;;;;;;;3.50;1.30;;;;;;;16.44;37.01;101733.42;106783;1302;22557;-86
2022/05/09 08:33:15;;;;;;;3.40;1.10;;;;;;;16.59;36.99;101735.55;106551;1302;22795;-84
2022/05/09 08:35:47;;;;;;;4.50;1.20;;;;;;;16.69;36.44;101731.69;105335;1299;23209;-85
2022/05/09 08:38:15;;;;;;;4.10;1.00;;;;;;;16.83;36.21;101733.80;104106;1305;22652;-84
2022/05/09 08:41:05;;;;;;;2.80;1.20;;;;;;;16.97;36.42;101735.40;104847;1303;23113;-87
2022/05/09 08:44:09;;;;;;;3.50;1.30;;;;;;;17.14;35.64;101740.34;103864;1303;22626;-86
2022/05/09 08:47:24;;;;;;;1.70;1.00;;;;;;;17.20;34.98;101741.84;104326;1293;25368;-84
2022/05/09 08:50:36;;;;;;;1.50;0.90;;;;;;;17.23;34.83;101740.75;104408;1294;22545;-85
2022/05/09 08:53:09;;;;;;;2.40;0.90;;;;;;;17.35;34.87;101741.09;104262;1294;22658;-84
2022/05/09 08:55:40;;;;;;;2.60;1.10;;;;;;;17.48;34.84;101740.52;104150;1291;25375;-85
2022/05/09 08:58:32;;;;;;;3.20;1.30;;;;;;;17.62;34.43;101743.86;104416;1293;26666;-85
2022/05/09 09:01:03;;;;;;;6.50;1.20;;;;;;;17.73;33.63;101747.05;104746;1290;22641;-85
2022/05/09 09:03:39;;;;;;;;;;;;;;;17.74;33.33;101739.02;104550;1291;22557;-85
2022/05/09 09:06:16;;;;;;;1.60;1.00;;;;;;;17.81;33.15;101730.88;106197;1290;24307;-87
2022/05/09 09:09:15;;;;;;;1.90;1.10;;;;;;;17.96;33.57;101730.96;106286;1292;22553;-86
2022/05/09 09:12:12;;;;;;;3.70;0.80;;;;;;;18.11;33.01;101729.98;106264;1300;24457;-84
2022/05/09 09:15:03;;;;;;;1.40;1.00;;;;;;;18.27;32.46;101729.34;106503;1300;22512;-86
2022/05/09 09:18:08;;;;;;;3.90;0.90;;;;;;;18.42;31.88;101734.76;106369;1302;22524;-87
2022/05/09 09:21:14;;;;;;;2.80;1.30;;;;;;;18.58;32.04;101735.48;104282;1302;24273;-86
2022/05/09 09:24:07;;;;;;;2.30;1.20;;;;;;;18.71;31.67;101730.56;103740;1302;23123;-84
2022/05/09 09:26:50;;;;;;;3.00;0.90;;;;;;;18.84;31.34;101733.15;103781;1297;25384;-84
2022/05/09 09:29:55;;;;;;;3.30;1.40;;;;;;;18.99;31.23;101734.05;103581;1302;23189;-85
2022/05/09 09:32:23;;;;;;;5.30;1.30;;;;;;;19.17;31.12;101733.86;103490;1302;25541;-85
2022/05/09 09:35:30;;;;;;;5.00;1.30;;;;;;;19.32;31.14;101737.06;105175;1308;23053;-85
2022/05/09 09:38:20;;;;;;;3.30;1.20;;;;;;;19.39;30.49;101734.39;105387;1307;23233;-85
2022/05/09 09:40:48;;;;;;;2.60;1.30;;;;;;;19.49;30.11;101731.65;103760;1308;25386;-86
2022/05/09 09:43:19;;;;;;;2.30;0.90;;;;;;;19.59;30.13;101731.04;104099;1308;22645;-85
2022/05/09 09:46:02;;;;;;;3.70;1.20;;;;;;;19.70;29.94;101736.11;103971;1313;24028;-84
2022/05/09 09:48:31;;;;;;;3.20;1.10;;;;;;;19.81;29.30;101731.55;103872;1311;25300;-85
2022/05/09 09:51:07;;;;;;;6.30;1.00;;;;;;;19.92;29.08;101728.92;103760;1308;22954;-84
2022/05/09 09:53:49;;;;;;;2.30;1.10;;;;;;;20.05;28.64;101725.94;105013;1297;22609;-85
2022/05/09 09:56:24;;;;;;;3.40;1.10;;;;;;;20.19;28.53;101723.77;105994;1299;23061;-84
2022/05/09 09:58:57;;;;;;;2.40;1.20;;;;;;;20.34;28.65;101718.67;104785;1304;22946;-85
2022/05/09 10:01:33;;;;;;;4.80;1.30;;;;;;;20.52;28.40;101722.09;104139;1303;24462;-84
2022/05/09 10:04:12;;;;;;;5.70;1.90;;;;;;;20.69;28.45;101719.23;104183;1296;25396;-87
2022/05/09 10:07:07;;;;;;;2.30;1.10;;;;;;;20.85;27.67;101721.80;104591;1299;25388;-85
2022/05/09 10:09:41;;;;;;;2.60;1.30;;;;;;;21.00;27.44;101722.99;104412;1296;25387;-84
2022/05/09 10:12:18;;;;;;;1.40;1.10;;;;;;;21.12;27.32;101728.00;104276;1299;25957;-84
2022/05/09 10:14:46;;;;;;;3.10;1.00;;;;;;;21.24;27.23;101721.86;103783;1302;22711;-82
2022/05/09 10:17:33;;;;;;;1.80;0.80;;;;;;;21.38;27.04;101712.83;104041;1296;25543;-85
2022/05/09 10:20:37;;;;;;;6.40;1.00;;;;;;;21.49;26.86;101714.42;104323;1297;22841;-86
2022/05/09 10:26:21;;;;;;;1.80;0.90;;;;;;;21.70;26.38;101713.89;104211;1296;25516;-85
2022/05/09 10:28:54;;;;;;;0.90;0.70;;;;;;;21.78;26.22;101709.13;104163;1296;23098;-86
2022/05/09 10:31:30;;;;;;;6.30;1.30;;;;;;;21.90;26.12;101699.25;104287;1296;24330;-83
2022/05/09 10:34:17;;;;;;;1.20;0.90;;;;;;;21.98;26.02;101695.91;104682;1290;22585;-85
2022/05/09 10:37:07;;;;;;;3.30;1.10;;;;;;;22.11;25.84;101696.66;104126;1296;23599;-86
2022/05/09 10:39:40;;;;;;;1.40;0.90;;;;;;;22.26;25.62;101700.27;103822;1299;25232;-88
2022/05/09 10:42:13;;;;;;;4.10;1.00;;;;;;;22.39;25.62;101698.88;103904;1299;24434;-87
2022/05/09 10:44:47;;;;;;;5.40;1.20;;;;;;;22.42;25.24;101692.30;104151;1297;22565;-87
2022/05/09 10:47:41;;;;;;;2.30;1.10;;;;;;;22.54;25.25;101695.64;104325;1299;25280;-86
2022/05/09 10:50:31;;;;;;;1.30;1.20;;;;;;;22.62;24.82;101687.42;104194;1296;25350;-86
2022/05/09 10:53:09;;;;;;;5.80;0.90;;;;;;;22.62;24.34;101688.51;104142;1296;22642;-86
2022/05/09 10:55:44;;;;;;;1.60;0.90;;;;;;;22.37;24.17;101684.77;104075;1296;22549;-84
2022/05/09 10:58:35;;;;;;;3.70;1.10;;;;;;;22.40;24.69;101680.36;103935;1302;22761;-84
2022/05/09 11:01:09;;;;;;;3.10;0.80;;;;;;;22.55;24.49;101679.95;104034;1299;22744;-86
2022/05/09 11:03:41;;;;;;;3.80;0.90;;;;;;;22.68;24.48;101679.85;104592;1294;24294;-85
2022/05/09 11:06:54;;;;;;;1.50;0.70;;;;;;;22.80;24.44;101674.70;104422;1296;22792;-86
2022/05/09 11:09:59;;;;;;;2.40;1.00;;;;;;;23.06;24.12;101668.78;103846;1299;24247;-88
2022/05/09 11:12:45;;;;;;;3.20;0.90;;;;;;;23.22;23.65;101662.73;103977;1300;22742;-84
2022/05/09 11:15:43;;;;;;;1.20;0.90;;;;;;;23.32;23.49;101665.92;104251;1299;22766;-85
2022/05/09 11:18:39;;;;;;;3.60;0.90;;;;;;;23.56;23.49;101659.18;104346;1296;22576;-86
2022/05/09 11:21:09;;;;;;;5.10;0.80;;;;;;;23.71;23.50;101658.70;104379;1299;22591;-87
2022/05/09 11:23:55;;;;;;;4.40;1.00;;;;;;;23.80;23.33;101657.91;105134;1296;22718;-86
2022/05/09 11:26:45;;;;;;;2.10;0.90;;;;;;;24.00;22.72;101656.34;104454;1299;22576;-86
2022/05/09 11:29:27;;;;;;;1.80;1.10;;;;;;;24.03;22.49;101659.27;104087;1299;22674;-85
2022/05/09 11:32:08;;;;;;;2.50;1.10;;;;;;;24.06;22.36;101661.10;104051;1299;23991;-85
2022/05/09 11:35:28;;;;;;;3.20;1.30;;;;;;;24.14;22.51;101659.30;103974;1300;24038;-87
2022/05/09 11:38:10;;;;;;;4.30;0.80;;;;;;;24.30;22.12;101655.73;104201;1300;24366;-87
2022/05/09 11:40:54;;;;;;;7.70;1.10;;;;;;;24.40;21.80;101653.24;104542;1299;23277;-86
2022/05/09 11:44:04;;;;;;;2.30;1.00;;;;;;;24.57;22.05;101652.45;104886;1300;22871;-87
2022/05/09 11:47:11;;;;;;;2.70;1.20;;;;;;;24.79;21.83;101651.76;104963;1290;23979;-86
2022/05/09 11:49:50;;;;;;;1.80;1.00;;;;;;;24.95;21.26;101649.55;105415;1290;25272;-86
2022/05/09 11:52:36;;;;;;;2.60;0.80;;;;;;;25.05;21.30;101647.65;105565;1290;25328;-86
2022/05/09 11:55:25;;;;;;;2.50;0.90;;;;;;;25.04;21.32;101643.38;105421;1288;22962;-85
2022/05/09 11:57:58;;;;;;;3.10;1.00;;;;;;;25.05;21.13;101645.66;104851;1287;22572;-86
2022/05/09 12:00:26;;;;;;;2.90;0.80;;;;;;;25.15;20.98;101638.48;104166;1297;22562;-87
2022/05/09 12:03:01;;;;;;;3.10;1.10;;;;;;;25.24;21.18;101639.64;104534;1299;25626;-87
2022/05/09 12:05:31;;;;;;;1.20;1.10;;;;;;;25.33;20.88;101637.73;104925;1300;22623;-87